createdAt,value
2023-05-11T00:00:23.547Z,90.62
2023-05-11T00:01:23.665Z,90.73
2023-05-11T00:02:23.926Z,90.88
2023-05-11T00:03:24.158Z,91.08
2023-05-11T00:04:24.291Z,91.28
2023-05-11T00:05:24.378Z,91.28
2023-05-11T00:06:24.497Z,91.63
2023-05-11T00:07:24.753Z,91.93
2023-05-11T00:08:24.879Z,91.83
2023-05-11T00:09:25.004Z,92.03
2023-05-11T00:10:25.129Z,92.24
2023-05-11T00:11:25.273Z,92.44
2023-05-11T00:12:25.427Z,92.44
2023-05-11T00:13:25.542Z,92.33
2023-05-11T00:14:25.692Z,92.33
2023-05-11T00:15:25.851Z,92.48
2023-05-11T00:16:26.162Z,92.58
2023-05-11T00:17:26.144Z,92.58
2023-05-11T00:18:26.274Z,92.79
2023-05-11T00:19:26.514Z,92.99
2023-05-11T00:20:26.651Z,93.29
2023-05-11T00:21:26.786Z,93.60
2023-05-11T00:22:26.949Z,93.74
2023-05-11T00:23:27.072Z,93.95
2023-05-11T00:24:27.184Z,94.05
2023-05-11T00:25:27.308Z,94.21
2023-05-11T00:26:27.424Z,94.25
2023-05-11T00:27:27.615Z,94.25
2023-05-11T00:28:27.722Z,94.35
2023-05-11T00:29:27.968Z,94.66
2023-05-11T00:30:28.110Z,94.86
2023-05-11T00:31:30.440Z,95.06
2023-05-11T00:32:28.434Z,95.17
2023-05-11T00:33:28.542Z,95.26
2023-05-11T00:34:28.678Z,95.26
2023-05-11T00:35:28.816Z,95.17
2023-05-11T00:36:28.930Z,95.26
2023-05-11T00:37:29.181Z,95.17
2023-05-11T00:38:29.310Z,95.17
2023-05-11T00:39:29.451Z,95.06
2023-05-11T00:40:29.589Z,95.06
2023-05-11T00:41:29.824Z,95.10
2023-05-11T00:42:29.994Z,95.31
2023-05-11T00:43:30.125Z,95.21
2023-05-11T00:44:30.234Z,95.21
2023-05-11T00:45:30.522Z,95.21
2023-05-11T00:46:30.630Z,95.31
2023-05-11T00:47:30.821Z,95.31
2023-05-11T00:48:30.911Z,95.41
2023-05-11T00:49:31.051Z,95.62
2023-05-11T00:50:31.177Z,95.82
2023-05-11T00:51:31.328Z,95.82
2023-05-11T00:52:31.497Z,95.76
2023-05-11T00:53:31.646Z,95.86
2023-05-11T00:54:31.772Z,96.07
2023-05-11T00:55:31.909Z,96.17
2023-05-11T00:56:32.037Z,96.27
2023-05-11T00:57:32.321Z,96.47
2023-05-11T00:58:32.428Z,96.68
2023-05-11T00:59:32.610Z,96.78
2023-05-11T01:00:32.777Z,97.08
2023-05-11T01:01:32.882Z,97.33
2023-05-11T01:02:33.178Z,97.44
2023-05-11T01:03:33.215Z,97.33
2023-05-11T01:04:33.346Z,97.44
2023-05-11T01:05:33.606Z,97.33
2023-05-11T01:06:33.750Z,97.33
2023-05-11T01:07:34.002Z,97.33
2023-05-11T01:08:34.119Z,97.33
2023-05-11T01:09:34.367Z,97.44
2023-05-11T01:10:34.485Z,97.44
2023-05-11T01:11:34.757Z,97.44
2023-05-11T01:12:34.883Z,97.44
2023-05-11T01:13:35.022Z,97.53
2023-05-11T01:14:35.194Z,97.74
2023-05-11T01:15:35.444Z,97.84
2023-05-11T01:16:35.601Z,97.94
2023-05-11T01:17:35.862Z,97.84
2023-05-11T01:18:36.003Z,97.89
2023-05-11T01:19:36.111Z,97.78
2023-05-11T01:20:36.238Z,97.99
2023-05-11T01:21:36.363Z,97.99
2023-05-11T01:22:36.654Z,97.99
2023-05-11T01:23:36.760Z,97.99
2023-05-11T01:24:36.877Z,98.19
2023-05-11T01:25:37.132Z,98.30
2023-05-11T01:26:37.252Z,98.19
2023-05-11T01:27:37.497Z,98.14
2023-05-11T01:28:37.617Z,98.05
2023-05-11T01:29:37.856Z,97.84
2023-05-11T01:30:37.988Z,97.64
2023-05-11T01:31:38.195Z,97.29
2023-05-11T01:32:40.128Z,97.08
2023-05-11T01:33:38.499Z,96.98
2023-05-11T01:34:38.609Z,96.78
2023-05-11T01:35:38.859Z,96.68
2023-05-11T01:36:38.984Z,96.47
2023-05-11T01:37:39.283Z,96.47
2023-05-11T01:38:39.446Z,96.47
2023-05-11T01:39:39.575Z,96.47
2023-05-11T01:40:39.711Z,96.37
2023-05-11T01:41:39.954Z,96.47
2023-05-11T01:42:40.110Z,96.47
2023-05-11T01:43:40.235Z,96.58
2023-05-11T01:44:40.385Z,96.58
2023-05-11T01:45:40.554Z,96.58
2023-05-11T01:46:40.749Z,96.37
2023-05-11T01:47:40.905Z,96.37
2023-05-11T01:48:41.050Z,96.47
2023-05-11T01:49:41.199Z,96.37
2023-05-11T01:50:41.365Z,96.27
2023-05-11T01:51:41.490Z,96.27
2023-05-11T01:52:41.636Z,96.37
2023-05-11T01:53:41.801Z,96.27
2023-05-11T01:54:41.988Z,96.17
2023-05-11T01:55:42.154Z,96.07
2023-05-11T01:56:42.260Z,96.22
2023-05-11T01:57:42.538Z,96.22
2023-05-11T01:58:42.681Z,96.11
2023-05-11T01:59:42.933Z,96.11
2023-05-11T02:00:43.097Z,96.11
2023-05-11T02:01:43.290Z,96.22
2023-05-11T02:02:43.502Z,96.22
2023-05-11T02:03:43.680Z,96.22
2023-05-11T02:04:43.814Z,96.01
2023-05-11T02:05:43.977Z,96.01
2023-05-11T02:06:44.124Z,96.11
2023-05-11T02:07:44.292Z,96.11
2023-05-11T02:08:44.413Z,96.11
2023-05-11T02:09:44.576Z,96.11
2023-05-11T02:10:44.707Z,96.01
2023-05-11T02:11:45.469Z,96.11
2023-05-11T02:12:45.160Z,96.11
2023-05-11T02:13:45.301Z,96.22
2023-05-11T02:14:45.438Z,96.42
2023-05-11T02:15:45.628Z,96.42
2023-05-11T02:16:45.737Z,96.52
2023-05-11T02:17:46.032Z,96.52
2023-05-11T02:18:46.296Z,96.42
2023-05-11T02:19:46.420Z,96.42
2023-05-11T02:20:46.579Z,96.52
2023-05-11T02:21:46.710Z,96.56
2023-05-11T02:22:46.910Z,96.67
2023-05-11T02:23:47.040Z,96.67
2023-05-11T02:24:47.144Z,96.67
2023-05-11T02:25:47.381Z,96.67
2023-05-11T02:26:47.535Z,96.87
2023-05-11T02:27:47.724Z,96.77
2023-05-11T02:28:47.872Z,97.07
2023-05-11T02:29:48.090Z,97.07
2023-05-11T02:30:48.229Z,97.07
2023-05-11T02:31:48.399Z,97.28
2023-05-11T02:32:48.545Z,97.38
2023-05-11T02:33:51.589Z,97.53
2023-05-11T02:34:48.876Z,97.73
2023-05-11T02:35:49.003Z,97.73
2023-05-11T02:36:49.149Z,97.83
2023-05-11T02:37:49.315Z,97.83
2023-05-11T02:38:49.448Z,97.73
2023-05-11T02:39:49.692Z,97.63
2023-05-11T02:40:49.920Z,97.73
2023-05-11T02:41:50.105Z,97.73
2023-05-11T02:42:50.298Z,97.63
2023-05-11T02:43:50.496Z,97.63
2023-05-11T02:44:50.698Z,97.53
2023-05-11T02:45:50.896Z,97.53
2023-05-11T02:46:51.216Z,97.42
2023-05-11T02:47:51.355Z,97.42
2023-05-11T02:48:51.534Z,97.42
2023-05-11T02:49:51.721Z,97.32
2023-05-11T02:50:51.964Z,97.32
2023-05-11T02:51:52.153Z,97.53
2023-05-11T02:52:52.322Z,97.42
2023-05-11T02:53:52.512Z,97.42
2023-05-11T02:54:52.671Z,97.22
2023-05-11T02:55:52.807Z,96.92
2023-05-11T02:56:52.992Z,96.81
2023-05-11T02:57:53.237Z,96.81
2023-05-11T02:58:53.271Z,96.61
2023-05-11T02:59:53.415Z,96.30
2023-05-11T03:00:53.611Z,96.10
2023-05-11T03:01:53.859Z,95.90
2023-05-11T03:02:53.946Z,95.90
2023-05-11T03:03:54.156Z,95.69
2023-05-11T03:04:54.252Z,95.59
2023-05-11T03:05:54.377Z,95.29
2023-05-11T03:06:54.634Z,95.29
2023-05-11T03:07:54.780Z,95.08
2023-05-11T03:08:54.935Z,95.29
2023-05-11T03:09:55.061Z,95.03
2023-05-11T03:10:55.218Z,94.92
2023-05-11T03:11:55.364Z,95.03
2023-05-11T03:12:55.537Z,95.13
2023-05-11T03:13:55.666Z,94.92
2023-05-11T03:14:55.851Z,94.72
2023-05-11T03:15:55.980Z,94.72
2023-05-11T03:16:56.328Z,94.72
2023-05-11T03:17:56.467Z,94.31
2023-05-11T03:18:56.623Z,93.60
2023-05-11T03:19:56.748Z,93.60
2023-05-11T03:20:56.907Z,93.60
2023-05-11T03:21:57.031Z,93.29
2023-05-11T03:22:57.200Z,92.99
2023-05-11T03:23:57.360Z,92.89
2023-05-11T03:24:57.487Z,92.99
2023-05-11T03:25:57.642Z,92.79
2023-05-11T03:26:57.819Z,92.48
2023-05-11T03:27:57.992Z,92.27
2023-05-11T03:28:58.157Z,92.38
2023-05-11T03:29:58.288Z,91.87
2023-05-11T03:30:58.470Z,91.77
2023-05-11T03:31:58.634Z,91.66
2023-05-11T03:32:58.804Z,91.30
2023-05-11T03:33:58.932Z,91.36
2023-05-11T03:34:59.188Z,91.36
2023-05-11T03:35:59.326Z,90.75
2023-05-11T03:36:59.596Z,90.44
2023-05-11T03:37:59.742Z,90.34
2023-05-11T03:38:59.877Z,90.59
2023-05-11T03:40:00.048Z,91.05
2023-05-11T03:41:00.297Z,90.44
2023-05-11T03:42:00.416Z,90.64
2023-05-11T03:43:00.684Z,90.24
2023-05-11T03:44:00.815Z,90.03
2023-05-11T03:45:00.987Z,89.94
2023-05-11T03:46:01.176Z,89.83
2023-05-11T03:47:01.274Z,89.53
2023-05-11T03:48:01.547Z,88.92
2023-05-11T03:49:01.667Z,89.22
2023-05-11T03:50:01.817Z,88.81
2023-05-11T03:51:01.982Z,88.92
2023-05-11T03:52:02.131Z,88.81
2023-05-11T03:53:02.261Z,88.81
2023-05-11T03:54:02.392Z,88.51
2023-05-11T03:55:02.647Z,88.40
2023-05-11T03:56:02.788Z,88.31
2023-05-11T03:57:03.084Z,88.31
2023-05-11T03:58:04.428Z,88.40
2023-05-11T03:59:03.343Z,87.90
2023-05-11T04:00:03.499Z,88.00
2023-05-11T04:01:03.749Z,88.10
2023-05-11T04:02:03.890Z,88.10
2023-05-11T04:03:04.219Z,88.00
2023-05-11T04:04:04.310Z,87.59
2023-05-11T04:05:04.438Z,87.49
2023-05-11T04:06:04.573Z,87.38
2023-05-11T04:07:04.828Z,87.38
2023-05-11T04:08:04.902Z,87.49
2023-05-11T04:09:05.049Z,87.38
2023-05-11T04:10:05.281Z,87.59
2023-05-11T04:11:05.380Z,87.29
2023-05-11T04:12:05.524Z,87.14
2023-05-11T04:13:05.761Z,87.04
2023-05-11T04:14:05.913Z,87.04
2023-05-11T04:15:06.043Z,87.04
2023-05-11T04:16:06.206Z,86.94
2023-05-11T04:17:06.345Z,86.13
2023-05-11T04:18:06.527Z,86.33
2023-05-11T04:19:06.776Z,86.63
2023-05-11T04:20:06.832Z,86.13
2023-05-11T04:21:06.971Z,85.72
2023-05-11T04:22:07.147Z,85.51
2023-05-11T04:23:09.020Z,85.31
2023-05-11T04:24:07.424Z,85.61
2023-05-11T04:25:07.584Z,85.11
2023-05-11T04:26:07.813Z,85.00
2023-05-11T04:27:07.842Z,84.90
2023-05-11T04:28:07.987Z,84.59
2023-05-11T04:29:08.116Z,84.19
2023-05-11T04:30:08.269Z,83.89
2023-05-11T04:31:08.485Z,84.09
2023-05-11T04:32:08.560Z,83.89
2023-05-11T04:33:08.877Z,83.89
2023-05-11T04:34:09.029Z,83.64
2023-05-11T04:35:09.109Z,83.44
2023-05-11T04:36:09.233Z,83.34
2023-05-11T04:37:09.461Z,83.23
2023-05-11T04:38:09.616Z,83.34
2023-05-11T04:39:09.771Z,82.73
2023-05-11T04:40:09.924Z,82.79
2023-05-11T04:41:11.050Z,82.18
2023-05-11T04:42:10.184Z,82.38
2023-05-11T04:43:10.342Z,81.87
2023-05-11T04:44:10.497Z,81.77
2023-05-11T04:45:10.673Z,81.57
2023-05-11T04:46:10.833Z,81.37
2023-05-11T04:47:11.110Z,81.37
2023-05-11T04:48:11.269Z,81.16
2023-05-11T04:49:11.381Z,81.06
2023-05-11T04:50:11.524Z,81.06
2023-05-11T04:51:11.660Z,80.85
2023-05-11T04:52:11.815Z,80.24
2023-05-11T04:53:11.965Z,80.72
2023-05-11T04:54:12.141Z,80.62
2023-05-11T04:55:12.287Z,80.51
2023-05-11T04:56:13.401Z,80.51
2023-05-11T04:57:12.631Z,80.31
2023-05-11T04:58:12.793Z,80.11
2023-05-11T04:59:12.960Z,79.97
2023-05-11T05:00:13.124Z,79.97
2023-05-11T05:01:13.284Z,79.77
2023-05-11T05:02:13.424Z,79.86
2023-05-11T05:03:13.566Z,78.85
2023-05-11T05:04:13.692Z,79.25
2023-05-11T05:05:13.830Z,78.64
2023-05-11T05:06:13.943Z,78.51
2023-05-11T05:07:14.247Z,78.61
2023-05-11T05:08:14.373Z,78.20
2023-05-11T05:09:14.503Z,78.41
2023-05-11T05:10:14.640Z,78.20
2023-05-11T05:11:14.863Z,78.00
2023-05-11T05:12:14.999Z,78.10
2023-05-11T05:13:15.238Z,77.90
2023-05-11T05:14:15.376Z,77.45
2023-05-11T05:15:15.528Z,78.06
2023-05-11T05:16:15.660Z,77.97
2023-05-11T05:17:15.762Z,77.25
2023-05-11T05:18:15.920Z,76.75
2023-05-11T05:19:16.066Z,76.54
2023-05-11T05:20:16.437Z,76.85
2023-05-11T05:21:16.402Z,76.95
2023-05-11T05:22:16.549Z,76.54
2023-05-11T05:23:17.214Z,76.14
2023-05-11T05:24:16.914Z,76.34
2023-05-11T05:25:17.085Z,76.31
2023-05-11T05:26:17.225Z,76.00
2023-05-11T05:27:17.344Z,75.59
2023-05-11T05:28:17.485Z,75.70
2023-05-11T05:29:17.627Z,75.29
2023-05-11T05:30:18.062Z,75.46
2023-05-11T05:31:17.918Z,75.56
2023-05-11T05:32:18.062Z,75.15
2023-05-11T05:33:18.207Z,75.01
2023-05-11T05:34:18.316Z,74.00
2023-05-11T05:35:22.218Z,74.10
2023-05-11T05:36:18.680Z,74.30
2023-05-11T05:37:18.818Z,74.41
2023-05-11T05:38:18.957Z,74.21
2023-05-11T05:39:19.130Z,73.39
2023-05-11T05:40:19.589Z,73.80
2023-05-11T05:41:19.429Z,73.16
2023-05-11T05:42:28.603Z,73.05
2023-05-11T05:43:19.770Z,73.36
2023-05-11T05:44:19.892Z,72.85
2023-05-11T05:45:20.016Z,72.24
2023-05-11T05:46:20.219Z,72.34
2023-05-11T05:47:20.379Z,72.31
2023-05-11T05:48:20.507Z,72.01
2023-05-11T05:49:20.626Z,72.72
2023-05-11T05:50:20.776Z,71.77
2023-05-11T05:51:20.902Z,71.06
2023-05-11T05:52:21.024Z,71.26
2023-05-11T05:53:21.166Z,70.96
2023-05-11T05:54:21.346Z,70.96
2023-05-11T05:55:21.459Z,70.65
2023-05-11T05:56:21.576Z,70.73
2023-05-11T05:57:21.703Z,70.73
2023-05-11T05:58:21.825Z,69.48
2023-05-11T05:59:21.956Z,68.77
2023-05-11T06:00:23.110Z,67.80
2023-05-11T06:01:22.766Z,66.42
2023-05-11T06:02:22.413Z,64.64
2023-05-11T06:03:22.576Z,63.14
2023-05-11T06:04:22.644Z,61.47
2023-05-11T06:05:22.893Z,59.58
2023-05-11T06:06:22.899Z,57.84
2023-05-11T06:07:23.095Z,57.39
2023-05-11T06:08:23.273Z,55.98
2023-05-11T06:09:23.396Z,56.08
2023-05-11T06:10:23.526Z,55.98
2023-05-11T06:11:23.711Z,55.73
2023-05-11T06:12:23.800Z,55.13
2023-05-11T06:13:23.917Z,54.55
2023-05-11T06:14:24.006Z,55.13
2023-05-11T06:15:24.691Z,54.37
2023-05-11T06:16:24.248Z,52.39
2023-05-11T06:17:24.349Z,52.00
2023-05-11T06:18:24.628Z,51.50
2023-05-11T06:19:24.594Z,52.29
2023-05-11T06:20:24.674Z,51.92
2023-05-11T06:21:24.770Z,51.89
2023-05-11T06:22:24.830Z,51.72
2023-05-11T06:23:24.931Z,52.19
2023-05-11T06:24:25.028Z,50.79
2023-05-11T06:25:25.099Z,51.79
2023-05-11T06:26:25.369Z,51.17
2023-05-11T06:27:25.258Z,51.20
2023-05-11T06:28:25.337Z,52.44
2023-05-11T06:29:25.426Z,52.22
2023-05-11T06:30:25.480Z,52.44
2023-05-11T06:31:25.678Z,51.09
2023-05-11T06:32:25.623Z,50.57
2023-05-11T06:33:25.710Z,49.62
2023-05-11T06:34:25.780Z,49.32
2023-05-11T06:35:25.884Z,49.15
2023-05-11T06:36:25.992Z,50.79
2023-05-11T06:37:26.038Z,51.25
2023-05-11T06:38:26.161Z,51.22
2023-05-11T06:39:26.206Z,51.52
2023-05-11T06:40:26.267Z,51.52
2023-05-11T06:41:26.334Z,51.22
2023-05-11T06:42:26.393Z,50.35
2023-05-11T06:43:26.458Z,49.85
2023-05-11T06:44:26.534Z,49.72
2023-05-11T06:45:26.661Z,49.52
2023-05-11T06:46:26.718Z,49.35
2023-05-11T06:47:26.917Z,49.22
2023-05-11T06:48:27.314Z,48.94
2023-05-11T06:49:27.623Z,49.27
2023-05-11T06:50:27.824Z,50.07
2023-05-11T06:51:27.228Z,49.72
2023-05-11T06:52:27.282Z,48.25
2023-05-11T06:53:27.390Z,46.96
2023-05-11T06:54:27.432Z,47.78
2023-05-11T06:55:27.517Z,48.00
2023-05-11T06:56:27.625Z,48.72
2023-05-11T06:57:27.664Z,48.08
2023-05-11T06:58:27.776Z,47.50
2023-05-11T06:59:27.822Z,48.32
2023-05-11T07:00:27.843Z,49.15
2023-05-11T07:01:27.992Z,49.35
2023-05-11T07:02:27.985Z,49.87
2023-05-11T07:03:28.099Z,48.75
2023-05-11T07:04:28.190Z,49.17
2023-05-11T07:05:28.211Z,49.05
2023-05-11T07:06:28.292Z,48.97
2023-05-11T07:07:28.387Z,48.94
2023-05-11T07:08:28.472Z,49.35
2023-05-11T07:09:28.524Z,49.35
2023-05-11T07:10:28.606Z,49.22
2023-05-11T07:11:28.736Z,48.35
2023-05-11T07:12:29.349Z,49.05
2023-05-11T07:13:28.884Z,48.85
2023-05-11T07:14:28.948Z,49.47
2023-05-11T07:15:28.988Z,48.45
2023-05-11T07:16:29.055Z,48.72
2023-05-11T07:17:29.101Z,48.13
2023-05-11T07:18:29.201Z,48.65
2023-05-11T07:19:29.261Z,48.55
2023-05-11T07:20:29.277Z,48.85
2023-05-11T07:21:29.333Z,48.35
2023-05-11T07:22:29.381Z,48.87
2023-05-11T07:23:29.505Z,48.67
2023-05-11T07:24:29.611Z,49.07
2023-05-11T07:25:29.667Z,48.35
2023-05-11T07:26:29.729Z,48.00
2023-05-11T07:27:31.676Z,47.66
2023-05-11T07:28:29.942Z,46.59
2023-05-11T07:29:29.996Z,46.66
2023-05-11T07:30:30.026Z,47.40
2023-05-11T07:31:30.164Z,47.68
2023-05-11T07:32:30.148Z,47.18
2023-05-11T07:33:30.211Z,47.18
2023-05-11T07:34:30.282Z,47.38
2023-05-11T07:35:30.339Z,47.44
2023-05-11T07:36:30.420Z,45.50
2023-05-11T07:37:30.486Z,45.18
2023-05-11T07:38:30.574Z,45.30
2023-05-11T07:39:30.633Z,45.40
2023-05-11T07:40:30.635Z,46.01
2023-05-11T07:41:30.789Z,45.84
2023-05-11T07:42:30.761Z,46.14
2023-05-11T07:43:30.806Z,45.72
2023-05-11T07:44:30.844Z,46.01
2023-05-11T07:45:30.875Z,45.92
2023-05-11T07:46:30.918Z,46.44
2023-05-11T07:47:30.969Z,46.01
2023-05-11T07:48:30.992Z,45.00
2023-05-11T07:49:39.870Z,45.10
2023-05-11T07:50:32.059Z,45.50
2023-05-11T07:51:31.079Z,45.60
2023-05-11T07:52:31.103Z,45.64
2023-05-11T07:53:31.164Z,45.82
2023-05-11T07:54:31.228Z,46.12
2023-05-11T07:55:31.189Z,45.48
2023-05-11T07:56:31.215Z,45.15
2023-05-11T07:57:31.278Z,43.74
2023-05-11T07:58:31.263Z,44.16
2023-05-11T07:59:31.277Z,44.38
2023-05-11T08:00:31.315Z,44.36
2023-05-11T08:01:31.345Z,44.78
2023-05-11T08:02:31.467Z,44.46
2023-05-11T08:03:31.434Z,44.46
2023-05-11T08:04:31.449Z,44.48
2023-05-11T08:05:31.487Z,44.31
2023-05-11T08:06:31.500Z,45.32
2023-05-11T08:07:31.510Z,46.22
2023-05-11T08:08:31.545Z,45.28
2023-05-11T08:09:31.543Z,44.18
2023-05-11T08:10:31.551Z,44.16
2023-05-11T08:11:31.541Z,43.96
2023-05-11T08:12:31.583Z,44.78
2023-05-11T08:13:31.605Z,45.20
2023-05-11T08:14:31.616Z,44.88
2023-05-11T08:15:31.624Z,45.20
2023-05-11T08:16:31.690Z,45.30
2023-05-11T08:17:31.692Z,45.40
2023-05-11T08:18:31.692Z,44.56
2023-05-11T08:19:31.680Z,44.06
2023-05-11T08:20:31.690Z,44.14
2023-05-11T08:21:31.728Z,43.52
2023-05-11T08:22:31.734Z,43.01
2023-05-11T08:23:31.762Z,42.51
2023-05-11T08:24:31.964Z,43.64
2023-05-11T08:25:31.785Z,43.74
2023-05-11T08:26:31.837Z,42.72
2023-05-11T08:27:31.879Z,44.59
2023-05-11T08:28:32.544Z,42.80
2023-05-11T08:29:31.927Z,42.93
2023-05-11T08:30:31.906Z,43.44
2023-05-11T08:31:31.936Z,44.08
2023-05-11T08:32:36.215Z,43.96
2023-05-11T08:33:38.058Z,43.66
2023-05-11T08:34:32.969Z,44.78
2023-05-11T08:35:31.901Z,44.70
2023-05-11T08:36:31.885Z,44.92
2023-05-11T08:37:31.886Z,44.50
2023-05-11T08:38:31.876Z,44.26
2023-05-11T08:39:45.891Z,42.86
2023-05-11T08:40:32.844Z,43.76
2023-05-11T08:41:31.816Z,43.49
2023-05-11T08:42:31.827Z,44.20
2023-05-11T08:43:31.818Z,44.20
2023-05-11T08:44:31.875Z,43.98
2023-05-11T08:45:31.869Z,43.88
2023-05-11T08:46:31.858Z,44.31
2023-05-11T08:47:31.856Z,44.82
2023-05-11T08:48:32.029Z,44.60
2023-05-11T08:49:31.868Z,44.80
2023-05-11T08:50:31.865Z,44.80
2023-05-11T08:51:31.835Z,44.20
2023-05-11T08:52:31.811Z,44.80
2023-05-11T08:53:31.763Z,44.72
2023-05-11T08:54:31.798Z,45.02
2023-05-11T08:55:31.798Z,45.34
2023-05-11T08:56:31.781Z,45.54
2023-05-11T08:57:31.801Z,45.66
2023-05-11T08:58:31.797Z,45.84
2023-05-11T08:59:31.812Z,44.70
2023-05-11T09:00:31.828Z,43.49
2023-05-11T09:01:31.893Z,43.41
2023-05-11T09:02:31.856Z,44.12
2023-05-11T09:03:31.877Z,44.24
2023-05-11T09:04:31.904Z,44.67
2023-05-11T09:05:31.971Z,44.32
2023-05-11T09:06:31.991Z,43.73
2023-05-11T09:07:31.895Z,43.51
2023-05-11T09:08:31.889Z,43.38
2023-05-11T09:09:31.948Z,42.37
2023-05-11T09:10:31.957Z,42.33
2023-05-11T09:11:31.953Z,42.37
2023-05-11T09:12:31.956Z,42.27
2023-05-11T09:13:31.981Z,43.19
2023-05-11T09:14:31.950Z,43.63
2023-05-11T09:15:36.891Z,43.43
2023-05-11T09:16:37.207Z,42.79
2023-05-11T09:17:31.989Z,41.99
2023-05-11T09:18:31.998Z,42.19
2023-05-11T09:19:31.979Z,43.43
2023-05-11T09:20:31.960Z,43.93
2023-05-11T09:21:31.969Z,43.30
2023-05-11T09:22:33.793Z,42.99
2023-05-11T09:23:31.977Z,42.69
2023-05-11T09:24:31.986Z,42.99
2023-05-11T09:25:32.009Z,42.71
2023-05-11T09:26:32.144Z,43.13
2023-05-11T09:27:32.034Z,43.47
2023-05-11T09:28:35.996Z,43.35
2023-05-11T09:29:32.130Z,42.73
2023-05-11T09:30:32.214Z,42.23
2023-05-11T09:31:32.129Z,42.71
2023-05-11T09:32:32.202Z,42.07
2023-05-11T09:33:32.182Z,41.47
2023-05-11T09:34:32.240Z,41.20
2023-05-11T09:35:32.203Z,41.71
2023-05-11T09:36:32.217Z,42.61
2023-05-11T09:37:32.208Z,42.09
2023-05-11T09:38:32.163Z,41.16
2023-05-11T09:40:33.870Z,41.24
2023-05-11T09:41:35.674Z,41.24
2023-05-11T09:42:32.121Z,41.24
2023-05-11T09:43:32.119Z,41.31
2023-05-11T09:44:32.121Z,39.71
2023-05-11T09:45:32.235Z,41.25
2023-05-11T09:46:32.244Z,41.89
2023-05-11T09:47:32.262Z,42.29
2023-05-11T09:48:32.174Z,41.89
2023-05-11T09:49:32.138Z,41.39
2023-05-11T09:50:32.148Z,41.99
2023-05-11T09:51:32.134Z,42.19
2023-05-11T09:52:32.142Z,42.43
2023-05-11T09:53:32.096Z,42.19
2023-05-11T09:54:32.075Z,41.39
2023-05-11T09:55:32.059Z,40.78
2023-05-11T09:56:32.034Z,40.96
2023-05-11T09:57:32.030Z,40.44
2023-05-11T09:58:32.246Z,40.36
2023-05-11T09:59:31.997Z,40.36
2023-05-11T10:00:32.014Z,40.36
2023-05-11T10:01:32.005Z,41.31
2023-05-11T10:02:32.180Z,41.30
2023-05-11T10:03:32.010Z,41.52
2023-05-11T10:04:32.153Z,41.58
2023-05-11T10:05:31.955Z,41.34
2023-05-11T10:06:31.904Z,40.94
2023-05-11T10:07:31.909Z,40.82
2023-05-11T10:08:31.924Z,40.24
2023-05-11T10:09:31.897Z,39.95
2023-05-11T10:10:31.880Z,40.33
2023-05-11T10:11:31.896Z,40.12
2023-05-11T10:12:31.906Z,40.82
2023-05-11T10:13:31.894Z,41.39
2023-05-11T10:14:31.924Z,39.83
2023-05-11T10:15:33.185Z,39.92
2023-05-11T10:16:32.007Z,40.16
2023-05-11T10:17:31.901Z,41.52
2023-05-11T10:18:31.918Z,41.71
2023-05-11T10:19:31.904Z,41.20
2023-05-11T10:20:31.980Z,40.44
2023-05-11T10:21:32.801Z,40.01
2023-05-11T10:22:31.925Z,38.28
2023-05-11T10:23:31.875Z,38.28
2023-05-11T10:24:31.859Z,38.70
2023-05-11T10:25:31.831Z,38.64
2023-05-11T10:26:31.822Z,38.95
2023-05-11T10:27:31.819Z,39.51
2023-05-11T10:28:31.831Z,37.88
2023-05-11T10:29:31.849Z,38.28
2023-05-11T10:30:32.510Z,37.30
2023-05-11T10:31:31.879Z,37.69
2023-05-11T10:32:31.868Z,37.96
2023-05-11T10:33:31.825Z,36.24
2023-05-11T10:34:31.830Z,36.33
2023-05-11T10:35:31.805Z,35.93
2023-05-11T10:36:31.771Z,36.15
2023-05-11T10:37:31.759Z,37.21
2023-05-11T10:38:31.737Z,37.66
2023-05-11T10:39:31.706Z,38.31
2023-05-11T10:40:31.664Z,39.14
2023-05-11T10:41:31.672Z,40.14
2023-05-11T10:42:31.660Z,40.56
2023-05-11T10:43:31.747Z,40.44
2023-05-11T10:44:31.743Z,40.04
2023-05-11T10:45:31.760Z,39.83
2023-05-11T10:46:31.867Z,39.11
2023-05-11T10:47:31.819Z,38.77
2023-05-11T10:48:31.798Z,38.65
2023-05-11T10:49:31.792Z,37.92
2023-05-11T10:50:31.781Z,38.02
2023-05-11T10:51:31.850Z,38.45
2023-05-11T10:52:31.858Z,39.69
2023-05-11T10:53:31.839Z,40.30
2023-05-11T10:54:31.869Z,39.29
2023-05-11T10:55:31.892Z,39.47
2023-05-11T10:56:31.999Z,39.54
2023-05-11T10:57:33.629Z,38.06
2023-05-11T10:58:32.002Z,39.17
2023-05-11T10:59:32.042Z,39.03
2023-05-11T11:00:32.095Z,38.32
2023-05-11T11:01:32.159Z,37.92
2023-05-11T11:02:32.162Z,38.40
2023-05-11T11:03:32.153Z,37.67
2023-05-11T11:04:32.183Z,36.84
2023-05-11T11:05:32.250Z,37.26
2023-05-11T11:06:33.044Z,36.68
2023-05-11T11:07:32.249Z,38.09
2023-05-11T11:08:32.230Z,38.64
2023-05-11T11:09:32.219Z,38.93
2023-05-11T11:10:32.205Z,38.20
2023-05-11T11:11:32.215Z,38.58
2023-05-11T11:12:32.218Z,37.45
2023-05-11T11:13:32.202Z,36.72
2023-05-11T11:14:32.204Z,37.22
2023-05-11T11:15:32.210Z,36.49
2023-05-11T11:16:32.297Z,36.51
2023-05-11T11:17:32.438Z,36.96
2023-05-11T11:18:32.487Z,37.69
2023-05-11T11:19:32.311Z,38.22
2023-05-11T11:20:32.354Z,39.84
2023-05-11T11:21:32.372Z,39.86
2023-05-11T11:22:32.416Z,39.86
2023-05-11T11:23:32.430Z,40.18
2023-05-11T11:24:32.493Z,40.18
2023-05-11T11:25:32.553Z,40.06
2023-05-11T11:26:32.652Z,38.28
2023-05-11T11:27:32.712Z,37.94
2023-05-11T11:28:32.614Z,38.43
2023-05-11T11:29:32.636Z,38.26
2023-05-11T11:30:32.689Z,39.50
2023-05-11T11:31:32.734Z,39.62
2023-05-11T11:32:32.721Z,39.62
2023-05-11T11:33:32.746Z,38.95
2023-05-11T11:34:32.798Z,38.61
2023-05-11T11:35:32.884Z,38.35
2023-05-11T11:36:32.884Z,36.55
2023-05-11T11:37:32.930Z,36.45
2023-05-11T11:38:32.954Z,35.90
2023-05-11T11:39:33.012Z,34.97
2023-05-11T11:40:46.958Z,34.97
2023-05-11T11:41:34.144Z,35.90
2023-05-11T11:43:52.164Z,37.84
2023-05-11T11:44:52.321Z,37.56
2023-05-11T11:45:52.467Z,38.59
2023-05-11T11:46:53.170Z,39.17
2023-05-11T11:47:52.857Z,38.39
2023-05-11T11:48:54.997Z,38.89
2023-05-11T11:49:53.121Z,38.26
2023-05-11T11:50:53.251Z,38.26
2023-05-11T11:51:53.431Z,37.66
2023-05-11T11:52:53.587Z,37.74
2023-05-11T11:53:53.710Z,37.41
2023-05-11T11:54:53.855Z,37.03
2023-05-11T11:55:54.009Z,36.98
2023-05-11T11:56:54.153Z,38.20
2023-05-11T11:57:54.300Z,38.39
2023-05-11T11:58:54.444Z,37.79
2023-05-11T11:59:54.581Z,38.20
2023-05-11T12:00:54.741Z,37.90
2023-05-11T12:01:54.914Z,37.70
2023-05-11T12:02:55.130Z,37.30
2023-05-11T12:03:55.393Z,36.80
2023-05-11T12:04:55.478Z,37.49
2023-05-11T12:05:55.651Z,37.70
2023-05-11T12:06:55.808Z,37.70
2023-05-11T12:07:55.997Z,37.18
2023-05-11T12:08:56.204Z,36.65
2023-05-11T12:09:56.362Z,34.81
2023-05-11T12:10:56.534Z,34.23
2023-05-11T12:11:56.692Z,35.34
2023-05-11T12:12:59.797Z,35.77
2023-05-11T12:13:57.033Z,36.29
2023-05-11T12:14:57.198Z,36.92
2023-05-11T12:15:57.411Z,37.51
2023-05-11T12:16:57.706Z,37.73
2023-05-11T12:17:57.837Z,37.93
2023-05-11T12:19:01.110Z,38.13
2023-05-11T12:19:58.140Z,37.13
2023-05-11T12:20:58.295Z,39.06
2023-05-11T12:21:58.458Z,38.25
2023-05-11T12:22:58.632Z,38.56
2023-05-11T12:23:58.850Z,38.65
2023-05-11T12:25:00.521Z,38.67
2023-05-11T12:25:59.235Z,38.96
2023-05-11T12:26:59.410Z,38.33
2023-05-11T12:27:59.660Z,37.06
2023-05-11T12:28:59.812Z,35.72
2023-05-11T12:29:59.982Z,35.54
2023-05-11T12:31:00.832Z,36.55
2023-05-11T12:32:00.394Z,36.27
2023-05-11T12:33:00.563Z,36.70
2023-05-11T12:34:00.737Z,36.78
2023-05-11T12:35:00.900Z,36.40
2023-05-11T12:36:01.054Z,37.12
2023-05-11T12:37:01.238Z,36.92
2023-05-11T12:38:01.537Z,36.62
2023-05-11T12:39:01.589Z,37.32
2023-05-11T12:40:01.766Z,36.83
2023-05-11T12:41:01.883Z,36.85
2023-05-11T12:42:02.038Z,37.25
2023-05-11T12:43:02.219Z,37.93
2023-05-11T12:44:02.409Z,36.82
2023-05-11T12:45:02.587Z,36.82
2023-05-11T12:46:02.797Z,36.22
2023-05-11T12:47:02.916Z,36.72
2023-05-11T12:48:03.155Z,36.62
2023-05-11T12:49:03.319Z,36.52
2023-05-11T12:50:03.511Z,36.92
2023-05-11T12:51:03.687Z,36.52
2023-05-11T12:52:03.853Z,36.64
2023-05-11T12:53:04.029Z,36.64
2023-05-11T12:54:04.202Z,35.94
2023-05-11T12:55:04.352Z,36.65
2023-05-11T12:56:04.563Z,36.64